Time,TemperatureF,DewpointF,PressureIn,WindDirection,WindDirectionDegrees,WindSpeedMPH,WindSpeedGustMPH,Humidity,HourlyPrecipIn,Conditions,Clouds,dailyrainin,SolarRadiationWatts/m^2,SoftwareType,DateUTC
2013-06-19 00:01:00,58.0,45.0,-100.00,NNW,343,6.0,13.0,61,0.00,,,0.00,0.000000,,2013-06-19 06:01:00,
2013-06-19 00:34:00,56.0,44.0,-100.00,NNW,348,4.0,10.0,63,0.00,,,0.00,0.000000,,2013-06-19 06:34:00,
2013-06-19 00:43:00,56.0,44.0,-100.00,NNW,348,4.0,10.0,63,0.00,,,0.00,0.000000,,2013-06-19 06:43:00,
2013-06-19 00:52:00,56.0,44.0,-100.00,NNW,348,4.0,10.0,63,0.00,,,0.00,0.000000,,2013-06-19 06:52:00,
2013-06-19 01:01:00,56.0,44.0,-100.00,NNW,348,4.0,10.0,63,0.00,,,0.00,0.000000,,2013-06-19 07:01:00,
2013-06-19 01:22:00,55.0,44.0,-100.00,NNW,339,4.0,9.0,66,0.00,,,0.00,0.000000,,2013-06-19 07:22:00,
2013-06-19 01:33:00,55.0,44.0,-100.00,NNW,339,4.0,9.0,66,0.00,,,0.00,0.000000,,2013-06-19 07:33:00,
2013-06-19 01:43:00,55.0,44.0,-100.00,NNW,339,4.0,9.0,66,0.00,,,0.00,0.000000,,2013-06-19 07:43:00,
2013-06-19 01:53:00,55.0,44.0,-100.00,NNW,339,4.0,9.0,66,0.00,,,0.00,0.000000,,2013-06-19 07:53:00,
2013-06-19 02:01:00,55.0,44.0,-100.00,NNW,339,4.0,9.0,66,0.00,,,0.00,0.000000,,2013-06-19 08:01:00,
2013-06-19 02:02:00,54.0,45.0,-100.00,NNW,341,2.0,8.0,71,0.00,,,0.00,0.000000,,2013-06-19 08:02:00,
2013-06-19 02:22:00,54.0,45.0,-100.00,NNW,341,2.0,8.0,71,0.00,,,0.00,0.000000,,2013-06-19 08:22:00,
2013-06-19 02:34:00,54.0,45.0,-100.00,NNW,341,2.0,8.0,71,0.00,,,0.00,0.000000,,2013-06-19 08:34:00,
2013-06-19 02:43:00,54.0,45.0,-100.00,NNW,341,2.0,8.0,71,0.00,,,0.00,0.000000,,2013-06-19 08:43:00,
2013-06-19 02:53:00,54.0,45.0,-100.00,NNW,341,2.0,8.0,71,0.00,,,0.00,0.000000,,2013-06-19 08:53:00,
2013-06-19 03:34:00,53.0,44.0,-100.00,West,267,1.0,7.0,71,0.00,,,0.00,0.000000,,2013-06-19 09:34:00,
2013-06-19 03:44:00,53.0,44.0,-100.00,West,267,1.0,7.0,71,0.00,,,0.00,0.000000,,2013-06-19 09:44:00,
2013-06-19 03:53:00,53.0,44.0,-100.00,West,267,1.0,7.0,71,0.00,,,0.00,0.000000,,2013-06-19 09:53:00,
2013-06-19 04:01:00,53.0,44.0,-100.00,West,267,1.0,7.0,71,0.00,,,0.00,0.000000,,2013-06-19 10:01:00,
2013-06-19 04:22:00,51.0,44.0,-100.00,WNW,287,2.0,6.0,77,0.00,,,0.00,0.000000,,2013-06-19 10:22:00,
2013-06-19 04:33:00,51.0,44.0,-100.00,WNW,287,2.0,6.0,77,0.00,,,0.00,0.000000,,2013-06-19 10:33:00,
2013-06-19 04:43:00,51.0,44.0,-100.00,WNW,287,2.0,6.0,77,0.00,,,0.00,0.000000,,2013-06-19 10:43:00,
2013-06-19 04:53:00,51.0,44.0,-100.00,WNW,287,2.0,6.0,77,0.00,,,0.00,0.000000,,2013-06-19 10:53:00,
2013-06-19 05:01:00,51.0,44.0,-100.00,WNW,287,2.0,6.0,77,0.00,,,0.00,0.000000,,2013-06-19 11:01:00,
2013-06-19 05:33:00,51.0,45.0,-100.00,NW,308,1.0,4.0,79,0.00,,,0.00,0.000000,,2013-06-19 11:33:00,
2013-06-19 05:43:00,51.0,45.0,-100.00,NW,308,1.0,4.0,79,0.00,,,0.00,0.000000,,2013-06-19 11:43:00,
2013-06-19 05:54:00,51.0,45.0,-100.00,NW,308,1.0,4.0,79,0.00,,,0.00,0.000000,,2013-06-19 11:54:00,
2013-06-19 06:01:00,51.0,45.0,-100.00,NW,308,1.0,4.0,79,0.00,,,0.00,0.000000,,2013-06-19 12:01:00,
2013-06-19 06:02:00,51.0,46.0,-100.00,ENE,67,1.0,2.0,82,0.00,,,0.00,0.000000,,2013-06-19 12:02:00,
2013-06-19 06:22:00,51.0,46.0,-100.00,ENE,67,1.0,2.0,82,0.00,,,0.00,0.000000,,2013-06-19 12:22:00,
2013-06-19 06:34:00,51.0,46.0,-100.00,ENE,67,1.0,2.0,82,0.00,,,0.00,0.000000,,2013-06-19 12:34:00,
2013-06-19 06:44:00,51.0,46.0,-100.00,ENE,67,1.0,2.0,82,0.00,,,0.00,0.000000,,2013-06-19 12:44:00,
2013-06-19 06:53:00,51.0,46.0,-100.00,ENE,67,1.0,2.0,82,0.00,,,0.00,0.000000,,2013-06-19 12:53:00,
2013-06-19 07:33:00,50.0,45.0,-100.00,West,268,1.0,4.0,82,0.00,,,-99.99,6.000000,,2013-06-19 13:33:00,
2013-06-19 07:43:00,50.0,45.0,-100.00,West,268,1.0,4.0,82,0.00,,,-99.99,6.000000,,2013-06-19 13:43:00,
2013-06-19 07:53:00,50.0,45.0,-100.00,West,268,1.0,4.0,82,0.00,,,-99.99,6.000000,,2013-06-19 13:53:00,
2013-06-19 08:01:00,50.0,45.0,-100.00,West,268,1.0,4.0,82,0.00,,,-99.99,6.000000,,2013-06-19 14:01:00,
2013-06-19 08:22:00,49.0,43.0,-100.00,NNE,21,2.0,5.0,79,0.00,,,0.00,12.000000,,2013-06-19 14:22:00,
2013-06-19 08:33:00,49.0,43.0,-100.00,NNE,21,2.0,5.0,79,0.00,,,0.00,12.000000,,2013-06-19 14:33:00,
2013-06-19 08:44:00,49.0,43.0,-100.00,NNE,21,2.0,5.0,79,0.00,,,0.00,12.000000,,2013-06-19 14:44:00,
2013-06-19 08:53:00,49.0,43.0,-100.00,NNE,21,2.0,5.0,79,0.00,,,0.00,12.000000,,2013-06-19 14:53:00,
2013-06-19 09:01:00,49.0,43.0,-100.00,NNE,21,2.0,5.0,79,0.00,,,0.00,12.000000,,2013-06-19 15:01:00,
2013-06-19 09:33:00,49.0,43.0,-100.00,SW,231,1.0,5.0,81,0.00,,,0.00,17.000000,,2013-06-19 15:33:00,
2013-06-19 09:43:00,49.0,43.0,-100.00,SW,231,1.0,5.0,81,0.00,,,0.00,17.000000,,2013-06-19 15:43:00,
2013-06-19 09:53:00,49.0,43.0,-100.00,SW,231,1.0,5.0,81,0.00,,,0.00,17.000000,,2013-06-19 15:53:00,
2013-06-19 10:01:00,49.0,43.0,-100.00,SW,231,1.0,5.0,81,0.00,,,0.00,17.000000,,2013-06-19 16:01:00,
2013-06-19 10:02:00,47.0,40.0,-100.00,SE,141,3.0,7.0,76,0.00,,,0.00,27.000000,,2013-06-19 16:02:00,
2013-06-19 10:34:00,47.0,40.0,-100.00,SE,141,3.0,7.0,76,0.00,,,0.00,27.000000,,2013-06-19 16:34:00,
2013-06-19 10:43:00,47.0,40.0,-100.00,SE,141,3.0,7.0,76,0.00,,,0.00,27.000000,,2013-06-19 16:43:00,
2013-06-19 10:52:00,47.0,40.0,-100.00,SE,141,3.0,7.0,76,0.00,,,0.00,27.000000,,2013-06-19 16:52:00,
2013-06-19 11:34:00,47.0,43.0,-100.00,NNE,14,1.0,4.0,86,0.00,,,0.00,42.000000,,2013-06-19 17:34:00,
2013-06-19 11:43:00,47.0,43.0,-100.00,NNE,14,1.0,4.0,86,0.00,,,0.00,42.000000,,2013-06-19 17:43:00,
2013-06-19 11:53:00,47.0,43.0,-100.00,NNE,14,1.0,4.0,86,0.00,,,0.00,42.000000,,2013-06-19 17:53:00,
2013-06-19 12:01:00,47.0,43.0,-100.00,NNE,14,1.0,4.0,86,0.00,,,0.00,42.000000,,2013-06-19 18:01:00,
2013-06-19 12:24:00,46.0,44.0,-100.00,ESE,123,2.0,5.0,91,0.07,,,0.07,61.000000,,2013-06-19 18:24:00,
2013-06-19 12:33:00,46.0,44.0,-100.00,ESE,123,2.0,5.0,91,0.07,,,0.07,61.000000,,2013-06-19 18:33:00,
2013-06-19 12:44:00,46.0,44.0,-100.00,ESE,123,2.0,5.0,91,0.07,,,0.07,61.000000,,2013-06-19 18:44:00,
2013-06-19 12:53:00,46.0,44.0,-100.00,ESE,123,2.0,5.0,91,0.07,,,0.07,61.000000,,2013-06-19 18:53:00,
2013-06-19 13:01:00,46.0,44.0,-100.00,ESE,123,2.0,5.0,91,0.07,,,0.07,61.000000,,2013-06-19 19:01:00,
2013-06-19 13:02:00,46.0,44.0,-100.00,SSE,158,2.0,7.0,93,0.05,,,0.12,103.000000,,2013-06-19 19:02:00,
2013-06-19 13:22:00,46.0,44.0,-100.00,SSE,158,2.0,7.0,93,0.05,,,0.12,103.000000,,2013-06-19 19:22:00,
2013-06-19 13:32:00,46.0,44.0,-100.00,SSE,158,2.0,7.0,93,0.05,,,0.12,103.000000,,2013-06-19 19:32:00,
2013-06-19 13:43:00,46.0,44.0,-100.00,SSE,158,2.0,7.0,93,0.05,,,0.12,103.000000,,2013-06-19 19:43:00,
2013-06-19 13:53:00,46.0,44.0,-100.00,SSE,158,2.0,7.0,93,0.05,,,0.12,103.000000,,2013-06-19 19:53:00,
2013-06-19 14:02:00,46.0,44.0,-100.00,East,89,2.0,7.0,92,0.01,,,0.13,231.000000,,2013-06-19 20:02:00,
2013-06-19 14:22:00,46.0,44.0,-100.00,East,89,2.0,7.0,92,0.01,,,0.13,231.000000,,2013-06-19 20:22:00,
2013-06-19 14:33:00,46.0,44.0,-100.00,East,89,2.0,7.0,92,0.01,,,0.13,231.000000,,2013-06-19 20:33:00,
2013-06-19 14:42:00,46.0,44.0,-100.00,East,89,2.0,7.0,92,0.01,,,0.13,231.000000,,2013-06-19 20:42:00,
2013-06-19 14:52:00,46.0,44.0,-100.00,East,89,2.0,7.0,92,0.01,,,0.13,231.000000,,2013-06-19 20:52:00,
2013-06-19 15:22:00,45.0,43.0,-100.00,SE,129,2.0,6.0,93,0.15,,,0.28,49.000000,,2013-06-19 21:22:00,
2013-06-19 15:33:00,45.0,43.0,-100.00,SE,129,2.0,6.0,93,0.15,,,0.28,49.000000,,2013-06-19 21:33:00,
2013-06-19 15:44:00,45.0,43.0,-100.00,SE,129,2.0,6.0,93,0.15,,,0.28,49.000000,,2013-06-19 21:44:00,
2013-06-19 15:52:00,45.0,43.0,-100.00,SE,129,2.0,6.0,93,0.15,,,0.28,49.000000,,2013-06-19 21:52:00,
2013-06-19 16:01:00,45.0,43.0,-100.00,SE,129,2.0,6.0,93,0.15,,,0.28,49.000000,,2013-06-19 22:01:00,
2013-06-19 16:02:00,44.0,42.0,-100.00,NE,45,1.0,7.0,94,0.20,,,0.48,37.000000,,2013-06-19 22:02:00,
2013-06-19 16:34:00,44.0,42.0,-100.00,NE,45,1.0,7.0,94,0.20,,,0.48,37.000000,,2013-06-19 22:34:00,
2013-06-19 16:43:00,44.0,42.0,-100.00,NE,45,1.0,7.0,94,0.20,,,0.48,37.000000,,2013-06-19 22:43:00,
2013-06-19 16:53:00,44.0,42.0,-100.00,NE,45,1.0,7.0,94,0.20,,,0.48,37.000000,,2013-06-19 22:53:00,
2013-06-19 17:34:00,44.0,42.0,-100.00,South,173,3.0,5.0,94,0.09,,,0.57,60.000000,,2013-06-19 23:34:00,
2013-06-19 17:43:00,44.0,42.0,-100.00,South,173,3.0,5.0,94,0.09,,,0.57,60.000000,,2013-06-19 23:43:00,
2013-06-19 17:52:00,44.0,42.0,-100.00,South,173,3.0,5.0,94,0.09,,,0.57,60.000000,,2013-06-19 23:52:00,
2013-06-19 18:01:00,44.0,42.0,-100.00,South,173,3.0,5.0,94,0.09,,,0.57,60.000000,,2013-06-20 00:01:00,
2013-06-19 18:34:00,45.0,43.0,-100.00,South,181,3.0,6.0,93,0.08,,,0.65,159.000000,,2013-06-20 00:34:00,
2013-06-19 18:44:00,45.0,43.0,-100.00,South,181,3.0,6.0,93,0.08,,,0.65,159.000000,,2013-06-20 00:44:00,
2013-06-19 18:52:00,45.0,43.0,-100.00,South,181,3.0,6.0,93,0.08,,,0.65,159.000000,,2013-06-20 00:52:00,
2013-06-19 19:01:00,45.0,43.0,-100.00,South,181,3.0,6.0,93,0.08,,,0.65,159.000000,,2013-06-20 01:01:00,
2013-06-19 19:02:00,44.0,42.0,-100.00,WSW,244,2.0,10.0,93,0.00,,,0.65,66.000000,,2013-06-20 01:02:00,
2013-06-19 19:22:00,44.0,42.0,-100.00,WSW,244,2.0,10.0,93,0.00,,,0.65,66.000000,,2013-06-20 01:22:00,
2013-06-19 19:33:00,44.0,42.0,-100.00,WSW,244,2.0,10.0,93,0.00,,,0.65,66.000000,,2013-06-20 01:33:00,
2013-06-19 19:44:00,44.0,42.0,-100.00,WSW,244,2.0,10.0,93,0.00,,,0.65,66.000000,,2013-06-20 01:44:00,
2013-06-19 19:52:00,44.0,42.0,-100.00,WSW,244,2.0,10.0,93,0.00,,,0.65,66.000000,,2013-06-20 01:52:00,
2013-06-19 20:02:00,43.0,41.0,-100.00,South,171,2.0,5.0,93,0.00,,,0.65,49.000000,,2013-06-20 02:02:00,
2013-06-19 20:24:00,43.0,41.0,-100.00,South,171,2.0,5.0,93,0.00,,,0.65,49.000000,,2013-06-20 02:24:00,
2013-06-19 20:34:00,43.0,41.0,-100.00,South,171,2.0,5.0,93,0.00,,,0.65,49.000000,,2013-06-20 02:34:00,
2013-06-19 20:43:00,43.0,41.0,-100.00,South,171,2.0,5.0,93,0.00,,,0.65,49.000000,,2013-06-20 02:43:00,
2013-06-19 20:52:00,43.0,41.0,-100.00,South,171,2.0,5.0,93,0.00,,,0.65,49.000000,,2013-06-20 02:52:00,
2013-06-19 21:22:00,42.0,40.0,-100.00,NW,317,2.0,4.0,93,0.01,,,0.66,13.000000,,2013-06-20 03:22:00,
2013-06-19 21:33:00,42.0,40.0,-100.00,NW,317,2.0,4.0,93,0.01,,,0.66,13.000000,,2013-06-20 03:33:00,
2013-06-19 21:43:00,42.0,40.0,-100.00,NW,317,2.0,4.0,93,0.01,,,0.66,13.000000,,2013-06-20 03:43:00,
2013-06-19 21:54:00,42.0,40.0,-100.00,NW,317,2.0,4.0,93,0.01,,,0.66,13.000000,,2013-06-20 03:54:00,
2013-06-19 22:01:00,42.0,40.0,-100.00,NW,317,2.0,4.0,93,0.01,,,0.66,13.000000,,2013-06-20 04:01:00,
2013-06-19 22:23:00,42.0,40.0,-100.00,NNW,344,2.0,4.0,93,0.03,,,0.69,1.000000,,2013-06-20 04:23:00,
2013-06-19 22:34:00,42.0,40.0,-100.00,NNW,344,2.0,4.0,93,0.03,,,0.69,1.000000,,2013-06-20 04:34:00,
2013-06-19 22:43:00,42.0,40.0,-100.00,NNW,344,2.0,4.0,93,0.03,,,0.69,1.000000,,2013-06-20 04:43:00,
2013-06-19 22:54:00,42.0,40.0,-100.00,NNW,344,2.0,4.0,93,0.03,,,0.69,1.000000,,2013-06-20 04:54:00,
2013-06-19 23:01:00,42.0,40.0,-100.00,NNW,344,2.0,4.0,93,0.03,,,0.69,1.000000,,2013-06-20 05:01:00,
2013-06-19 23:22:00,41.0,39.0,-100.00,WSW,242,2.0,5.0,93,0.01,,,0.70,0.000000,,2013-06-20 05:22:00,
2013-06-19 23:33:00,41.0,39.0,-100.00,WSW,242,2.0,5.0,93,0.01,,,0.70,0.000000,,2013-06-20 05:33:00,
2013-06-19 23:44:00,41.0,39.0,-100.00,WSW,242,2.0,5.0,93,0.01,,,0.70,0.000000,,2013-06-20 05:44:00,
2013-06-19 23:53:00,41.0,39.0,-100.00,WSW,242,2.0,5.0,93,0.01,,,0.70,0.000000,,2013-06-20 05:53:00,